createdAt,value
2017-09-13T00:00:28.672Z,0
2017-09-13T00:01:30.042Z,0
2017-09-13T00:02:31.410Z,0
2017-09-13T00:03:32.769Z,0
2017-09-13T00:04:34.151Z,0
2017-09-13T00:05:35.525Z,0
2017-09-13T00:06:36.899Z,0
2017-09-13T00:07:38.262Z,0
2017-09-13T00:08:39.631Z,0
2017-09-13T00:09:41.002Z,0
2017-09-13T00:10:42.370Z,0
2017-09-13T00:11:43.741Z,0
2017-09-13T00:12:45.111Z,0
2017-09-13T00:13:46.485Z,0
2017-09-13T00:14:47.860Z,0
2017-09-13T00:15:49.220Z,0
2017-09-13T00:16:50.589Z,0
2017-09-13T00:17:51.957Z,0
2017-09-13T00:18:53.328Z,0
2017-09-13T00:19:54.701Z,0
2017-09-13T00:20:56.084Z,0
2017-09-13T00:21:57.453Z,0
2017-09-13T00:22:58.813Z,0
2017-09-13T00:24:00.180Z,0
2017-09-13T00:25:01.553Z,0
2017-09-13T00:26:02.921Z,0
2017-09-13T00:27:04.291Z,0
2017-09-13T00:28:05.658Z,0
2017-09-13T00:29:07.028Z,0
2017-09-13T00:30:08.400Z,0
2017-09-13T00:31:09.770Z,0
2017-09-13T00:32:11.138Z,0
2017-09-13T00:33:12.507Z,0
2017-09-13T00:34:13.876Z,0
2017-09-13T00:35:15.249Z,0
2017-09-13T00:36:16.618Z,0
2017-09-13T00:37:17.996Z,0
2017-09-13T00:38:19.359Z,0
2017-09-13T00:39:20.730Z,0
2017-09-13T00:40:22.099Z,0
2017-09-13T00:41:23.476Z,0
2017-09-13T00:42:24.846Z,0
2017-09-13T00:43:26.218Z,0
2017-09-13T00:44:27.594Z,0
2017-09-13T00:45:28.962Z,0
2017-09-13T00:46:30.332Z,0
2017-09-13T00:47:31.702Z,0
2017-09-13T00:48:33.103Z,0
2017-09-13T00:49:34.443Z,0
2017-09-13T00:50:35.816Z,0
2017-09-13T00:51:37.184Z,0
2017-09-13T00:52:38.557Z,0
2017-09-13T00:53:39.924Z,0
2017-09-13T00:54:41.333Z,0
2017-09-13T00:55:42.702Z,0
2017-09-13T00:56:44.073Z,0
2017-09-13T00:57:45.442Z,0
2017-09-13T00:58:46.809Z,0
2017-09-13T00:59:48.200Z,0
2017-09-13T01:00:49.570Z,0
2017-09-13T01:01:50.934Z,0
2017-09-13T01:02:52.310Z,0
2017-09-13T01:03:53.678Z,0
2017-09-13T01:04:55.079Z,0
2017-09-13T01:05:56.433Z,0
2017-09-13T01:06:57.801Z,0
2017-09-13T01:07:59.172Z,0
2017-09-13T01:09:00.543Z,0
2017-09-13T01:10:01.930Z,0
2017-09-13T01:11:03.299Z,0
2017-09-13T01:12:04.672Z,0
2017-09-13T01:13:06.038Z,0
2017-09-13T01:14:07.410Z,0
2017-09-13T01:15:08.785Z,0
2017-09-13T01:16:10.156Z,0
2017-09-13T01:17:11.524Z,0
2017-09-13T01:18:12.900Z,0
2017-09-13T01:19:14.272Z,0
2017-09-13T01:20:15.647Z,0
2017-09-13T01:21:17.016Z,0
2017-09-13T01:22:18.398Z,0
2017-09-13T01:23:19.791Z,0
2017-09-13T01:24:21.161Z,0
2017-09-13T01:25:22.534Z,0
2017-09-13T01:26:23.902Z,0
2017-09-13T01:27:25.280Z,0
2017-09-13T01:28:26.655Z,0
2017-09-13T01:29:28.047Z,0
2017-09-13T01:30:29.427Z,0
2017-09-13T01:31:30.794Z,0
2017-09-13T01:32:32.177Z,0
2017-09-13T01:33:33.551Z,0
2017-09-13T01:34:34.981Z,0
2017-09-13T01:35:36.348Z,0
2017-09-13T01:36:37.735Z,0
2017-09-13T01:37:39.103Z,0
2017-09-13T01:38:40.475Z,0
2017-09-13T01:39:41.853Z,0
2017-09-13T01:40:43.247Z,0
2017-09-13T01:41:44.620Z,0
2017-09-13T01:42:45.997Z,0
2017-09-13T01:43:47.395Z,0
2017-09-13T01:44:48.768Z,0
2017-09-13T01:45:50.140Z,0
2017-09-13T01:46:51.512Z,0
2017-09-13T01:47:52.895Z,0
2017-09-13T01:48:54.266Z,0
2017-09-13T01:49:55.638Z,0
2017-09-13T01:50:57.006Z,0
2017-09-13T01:51:58.379Z,0
2017-09-13T01:52:59.750Z,0
2017-09-13T01:54:01.125Z,0
2017-09-13T01:55:02.529Z,0
2017-09-13T01:56:03.889Z,0
2017-09-13T01:57:05.262Z,0
2017-09-13T01:58:06.631Z,0
2017-09-13T01:59:08.011Z,0
2017-09-13T02:00:09.388Z,0
2017-09-13T02:01:10.755Z,0
2017-09-13T02:02:12.142Z,0
2017-09-13T02:03:13.510Z,0
2017-09-13T02:04:14.885Z,0
2017-09-13T02:05:16.278Z,0
2017-09-13T02:06:17.650Z,0
2017-09-13T02:07:19.022Z,0
2017-09-13T02:08:20.406Z,0
2017-09-13T02:09:21.788Z,0
2017-09-13T02:10:23.151Z,0
2017-09-13T02:11:24.522Z,0
2017-09-13T02:12:25.922Z,0
2017-09-13T02:13:27.306Z,0
2017-09-13T02:14:28.693Z,0
2017-09-13T02:15:30.064Z,0
2017-09-13T02:16:31.486Z,0
2017-09-13T02:17:32.857Z,0
2017-09-13T02:18:34.228Z,0
2017-09-13T02:19:35.597Z,0
2017-09-13T02:20:36.980Z,0
2017-09-13T02:21:38.351Z,0
2017-09-13T02:22:39.725Z,0
2017-09-13T02:23:41.104Z,0
2017-09-13T02:24:42.474Z,0
2017-09-13T02:25:43.839Z,0
2017-09-13T02:26:45.213Z,0
2017-09-13T02:27:46.587Z,0
2017-09-13T02:28:47.957Z,0
2017-09-13T02:29:49.330Z,0
2017-09-13T02:30:50.704Z,0
2017-09-13T02:31:52.070Z,0
2017-09-13T02:32:53.445Z,0
2017-09-13T02:33:54.815Z,0
2017-09-13T02:34:56.201Z,0
2017-09-13T02:35:57.573Z,0
2017-09-13T02:36:58.942Z,0
2017-09-13T02:38:00.309Z,0
2017-09-13T02:39:01.677Z,0
2017-09-13T02:40:03.045Z,0
2017-09-13T02:41:04.415Z,0
2017-09-13T02:42:05.788Z,0
2017-09-13T02:43:07.168Z,0
2017-09-13T02:44:08.533Z,0
2017-09-13T02:45:09.900Z,0
2017-09-13T02:46:11.266Z,0
2017-09-13T02:47:12.635Z,0
2017-09-13T02:48:14.003Z,0
2017-09-13T02:49:15.377Z,0
2017-09-13T02:50:16.759Z,0
2017-09-13T02:51:18.131Z,0
2017-09-13T02:52:19.498Z,0
2017-09-13T02:53:20.871Z,0
2017-09-13T02:54:22.240Z,0
2017-09-13T02:55:23.617Z,0
2017-09-13T02:56:24.985Z,0
2017-09-13T02:57:26.352Z,0
2017-09-13T02:58:27.723Z,0
2017-09-13T02:59:29.093Z,0
2017-09-13T03:00:30.471Z,0
2017-09-13T03:01:31.862Z,0
2017-09-13T03:02:33.235Z,0
2017-09-13T03:03:34.604Z,0
2017-09-13T03:04:35.995Z,0
2017-09-13T03:05:37.359Z,0
2017-09-13T03:06:38.738Z,0
2017-09-13T03:07:40.104Z,0
2017-09-13T03:08:41.491Z,0
2017-09-13T03:09:42.863Z,0
2017-09-13T03:10:44.229Z,0
2017-09-13T03:11:45.591Z,0
2017-09-13T03:12:46.973Z,0
2017-09-13T03:13:48.346Z,0
2017-09-13T03:14:49.714Z,0
2017-09-13T03:15:51.082Z,0
2017-09-13T03:16:52.453Z,0
2017-09-13T03:17:53.822Z,0
2017-09-13T03:18:55.193Z,0
2017-09-13T03:19:56.565Z,0
2017-09-13T03:20:57.932Z,0
2017-09-13T03:21:59.302Z,0
2017-09-13T03:23:00.670Z,0
2017-09-13T03:24:02.039Z,0
2017-09-13T03:25:03.407Z,0
2017-09-13T03:26:04.775Z,0
2017-09-13T03:27:06.145Z,0
2017-09-13T03:28:07.517Z,0
2017-09-13T03:29:08.882Z,0
2017-09-13T03:30:10.251Z,0
2017-09-13T03:31:11.615Z,0
2017-09-13T03:32:12.988Z,0
2017-09-13T03:33:14.356Z,0
2017-09-13T03:34:15.749Z,0
2017-09-13T03:35:17.121Z,0
2017-09-13T03:36:18.490Z,0
2017-09-13T03:37:19.857Z,0
2017-09-13T03:38:21.228Z,0
2017-09-13T03:39:22.599Z,0
2017-09-13T03:40:23.969Z,0
2017-09-13T03:41:25.334Z,0
2017-09-13T03:42:26.703Z,0
2017-09-13T03:43:28.071Z,0
2017-09-13T03:44:29.438Z,0
2017-09-13T03:45:30.807Z,0
2017-09-13T03:46:32.176Z,0
2017-09-13T03:47:33.546Z,0
2017-09-13T03:48:34.917Z,0
2017-09-13T03:49:36.284Z,0
2017-09-13T03:50:37.651Z,0
2017-09-13T03:51:39.018Z,0
2017-09-13T03:52:40.389Z,0
2017-09-13T03:53:41.756Z,0
2017-09-13T03:54:43.121Z,0
2017-09-13T03:55:44.491Z,0
2017-09-13T03:56:45.862Z,0
2017-09-13T03:57:47.229Z,0
2017-09-13T03:58:48.655Z,0
2017-09-13T03:59:50.033Z,0
2017-09-13T04:00:51.409Z,0
2017-09-13T04:01:52.778Z,0
2017-09-13T04:02:54.143Z,0
2017-09-13T04:03:55.524Z,0
2017-09-13T04:04:56.879Z,0
2017-09-13T04:05:58.246Z,0
2017-09-13T04:06:59.614Z,0
2017-09-13T04:08:00.982Z,0
2017-09-13T04:09:02.350Z,0
2017-09-13T04:10:03.721Z,0
2017-09-13T04:11:05.090Z,0
2017-09-13T04:12:06.462Z,0
2017-09-13T04:13:07.826Z,0
2017-09-13T04:14:09.194Z,0
2017-09-13T04:15:10.566Z,0
2017-09-13T04:16:11.938Z,0
2017-09-13T04:17:13.306Z,0
2017-09-13T04:18:14.674Z,0
2017-09-13T04:19:16.041Z,0
2017-09-13T04:20:17.409Z,0
2017-09-13T04:21:18.778Z,0
2017-09-13T04:22:20.155Z,0
2017-09-13T04:23:21.515Z,0
2017-09-13T04:24:22.885Z,0
2017-09-13T04:25:24.256Z,0
2017-09-13T04:26:25.630Z,0
2017-09-13T04:27:26.988Z,0
2017-09-13T04:28:28.356Z,0
2017-09-13T04:29:29.729Z,0
2017-09-13T04:30:31.099Z,0
2017-09-13T04:31:32.467Z,0
2017-09-13T04:32:33.836Z,0
2017-09-13T04:33:35.205Z,0
2017-09-13T04:34:36.577Z,0
2017-09-13T04:35:37.936Z,4
2017-09-13T04:36:39.311Z,4
2017-09-13T04:37:40.686Z,4
2017-09-13T04:38:42.050Z,4
2017-09-13T04:39:43.419Z,4
2017-09-13T04:40:44.789Z,8
2017-09-13T04:41:46.164Z,8
2017-09-13T04:42:47.532Z,8
2017-09-13T04:43:48.906Z,12
2017-09-13T04:44:50.281Z,12
2017-09-13T04:45:51.651Z,16
2017-09-13T04:46:53.023Z,16
2017-09-13T04:47:54.404Z,20
2017-09-13T04:48:55.753Z,24
2017-09-13T04:49:57.126Z,28
2017-09-13T04:50:58.504Z,32
2017-09-13T04:51:59.866Z,36
2017-09-13T04:53:01.236Z,40
2017-09-13T04:54:02.607Z,48
2017-09-13T04:55:03.974Z,56
2017-09-13T04:56:05.341Z,72
2017-09-13T04:57:06.706Z,80
2017-09-13T04:58:08.083Z,72
2017-09-13T04:59:09.449Z,88
2017-09-13T05:00:10.823Z,100
2017-09-13T05:01:12.198Z,124
2017-09-13T05:02:13.565Z,144
2017-09-13T05:03:14.938Z,140
2017-09-13T05:04:16.329Z,156
2017-09-13T05:05:17.697Z,176
2017-09-13T05:06:19.081Z,204
2017-09-13T05:07:20.444Z,228
2017-09-13T05:08:21.816Z,248
2017-09-13T05:09:23.187Z,268
2017-09-13T05:10:24.561Z,272
2017-09-13T05:11:25.929Z,308
2017-09-13T05:12:27.300Z,320
2017-09-13T05:13:28.673Z,348
2017-09-13T05:14:30.051Z,464
2017-09-13T05:15:31.420Z,496
2017-09-13T05:16:32.797Z,484
2017-09-13T05:17:34.162Z,484
2017-09-13T05:18:35.535Z,592
2017-09-13T05:19:36.914Z,596
2017-09-13T05:20:38.284Z,536
2017-09-13T05:21:39.658Z,560
2017-09-13T05:22:41.036Z,484
2017-09-13T05:23:42.405Z,440
2017-09-13T05:24:43.774Z,488
2017-09-13T05:25:45.167Z,568
2017-09-13T05:26:46.533Z,600
2017-09-13T05:27:47.908Z,580
2017-09-13T05:28:49.284Z,536
2017-09-13T05:29:50.653Z,668
2017-09-13T05:30:52.023Z,916
2017-09-13T05:31:53.395Z,1036
2017-09-13T05:32:54.772Z,1112
2017-09-13T05:33:56.145Z,1280
2017-09-13T05:34:57.515Z,1560
2017-09-13T05:35:58.889Z,1564
2017-09-13T05:37:00.259Z,1180
2017-09-13T05:38:01.636Z,948
2017-09-13T05:39:03.008Z,960
2017-09-13T05:40:04.377Z,1052
2017-09-13T05:41:05.751Z,1312
2017-09-13T05:42:07.123Z,1448
2017-09-13T05:43:08.497Z,1760
2017-09-13T05:44:09.876Z,2496
2017-09-13T05:45:11.248Z,2916
2017-09-13T05:46:12.617Z,2704
2017-09-13T05:47:13.993Z,1992
2017-09-13T05:48:15.365Z,1400
2017-09-13T05:49:16.737Z,1148
2017-09-13T05:50:18.114Z,1196
2017-09-13T05:51:19.484Z,1280
2017-09-13T05:52:20.856Z,1556
2017-09-13T05:53:22.229Z,1816
2017-09-13T05:54:23.601Z,2516
2017-09-13T05:55:24.976Z,3144
2017-09-13T05:56:26.369Z,3628
2017-09-13T05:57:27.725Z,3640
2017-09-13T05:58:29.106Z,4180
2017-09-13T05:59:30.479Z,3788
2017-09-13T06:00:31.850Z,3236
2017-09-13T06:01:33.225Z,2432
2017-09-13T06:02:34.600Z,2620
2017-09-13T06:03:35.978Z,2932
2017-09-13T06:04:37.353Z,3112
2017-09-13T06:05:38.729Z,3416
2017-09-13T06:06:40.101Z,3228
2017-09-13T06:07:41.474Z,4320
2017-09-13T06:08:42.847Z,3780
2017-09-13T06:09:44.223Z,3264
2017-09-13T06:10:45.598Z,2968
2017-09-13T06:11:46.976Z,2552
2017-09-13T06:12:48.351Z,2872
2017-09-13T06:13:49.723Z,3432
2017-09-13T06:14:51.096Z,3800
2017-09-13T06:15:52.471Z,4136
2017-09-13T06:16:53.846Z,5676
2017-09-13T06:17:55.221Z,5328
2017-09-13T06:18:56.604Z,5868
2017-09-13T06:19:57.978Z,4860
2017-09-13T06:20:59.353Z,3852
2017-09-13T06:22:00.726Z,4344
2017-09-13T06:23:02.102Z,5360
2017-09-13T06:24:03.477Z,4648
2017-09-13T06:25:04.851Z,3096
2017-09-13T06:26:06.226Z,2744
2017-09-13T06:27:07.602Z,2088
2017-09-13T06:28:08.972Z,2452
2017-09-13T06:29:10.350Z,3988
2017-09-13T06:30:11.726Z,3424
2017-09-13T06:31:13.111Z,3480
2017-09-13T06:32:14.483Z,4264
2017-09-13T06:33:15.856Z,3696
2017-09-13T06:34:17.230Z,5336
2017-09-13T06:35:18.604Z,5040
2017-09-13T06:36:19.978Z,7756
2017-09-13T06:37:21.369Z,5648
2017-09-13T06:38:22.741Z,3932
2017-09-13T06:39:24.117Z,3144
2017-09-13T06:40:25.493Z,2524
2017-09-13T06:41:26.869Z,4300
2017-09-13T06:42:28.244Z,4080
2017-09-13T06:43:29.619Z,2716
2017-09-13T06:44:30.993Z,3696
2017-09-13T06:45:32.369Z,4332
2017-09-13T06:46:33.745Z,4360
2017-09-13T06:47:35.121Z,3768
2017-09-13T06:48:36.495Z,2912
2017-09-13T06:49:37.868Z,2636
2017-09-13T06:50:39.241Z,3036
2017-09-13T06:51:40.621Z,5084
2017-09-13T06:52:41.996Z,5752
2017-09-13T06:53:43.369Z,4936
2017-09-13T06:54:44.746Z,5392
2017-09-13T06:55:46.123Z,14272
2017-09-13T06:56:47.498Z,8804
2017-09-13T06:57:48.872Z,11824
2017-09-13T06:58:50.250Z,14368
2017-09-13T06:59:51.624Z,14912
2017-09-13T07:00:53.000Z,7732
2017-09-13T07:01:54.377Z,7208
2017-09-13T07:02:55.754Z,12976
2017-09-13T07:03:57.129Z,13484
2017-09-13T07:04:58.524Z,13792
2017-09-13T07:05:59.883Z,14688
2017-09-13T07:07:01.259Z,15168
2017-09-13T07:08:02.639Z,17344
2017-09-13T07:09:04.012Z,13080
2017-09-13T07:10:05.392Z,9252
2017-09-13T07:11:06.766Z,8476
2017-09-13T07:12:08.140Z,8388
2017-09-13T07:13:09.521Z,15296
2017-09-13T07:14:10.901Z,16000
2017-09-13T07:15:12.276Z,12280
2017-09-13T07:16:13.654Z,14848
2017-09-13T07:17:15.055Z,13288
2017-09-13T07:18:16.411Z,14064
2017-09-13T07:19:17.791Z,13648
2017-09-13T07:20:19.170Z,13684
2017-09-13T07:21:20.548Z,14128
2017-09-13T07:22:21.925Z,14848
2017-09-13T07:23:23.309Z,14152
2017-09-13T07:24:24.689Z,14240
2017-09-13T07:25:26.066Z,14592
2017-09-13T07:26:27.446Z,14976
2017-09-13T07:27:28.824Z,14912
2017-09-13T07:28:30.201Z,15136
2017-09-13T07:29:31.583Z,15744
2017-09-13T07:30:32.964Z,15392
2017-09-13T07:31:34.348Z,15712
2017-09-13T07:32:35.729Z,15456
2017-09-13T07:33:37.105Z,16384
2017-09-13T07:34:38.483Z,17408
2017-09-13T07:35:39.862Z,15904
2017-09-13T07:36:41.245Z,19936
2017-09-13T07:37:42.626Z,9500
2017-09-13T07:38:44.008Z,18912
2017-09-13T07:39:45.387Z,9400
2017-09-13T07:40:46.764Z,18912
2017-09-13T07:41:48.142Z,9780
2017-09-13T07:42:49.525Z,13552
2017-09-13T07:43:50.905Z,23104
2017-09-13T07:44:52.289Z,23616
2017-09-13T07:45:53.672Z,19360
2017-09-13T07:46:55.053Z,7156
2017-09-13T07:47:56.433Z,19712
2017-09-13T07:48:57.812Z,21248
2017-09-13T07:49:59.195Z,19584
2017-09-13T07:51:00.577Z,19360
2017-09-13T07:52:01.956Z,19968
2017-09-13T07:53:03.348Z,20864
2017-09-13T07:54:04.720Z,24416
2017-09-13T07:55:06.098Z,27296
2017-09-13T07:56:07.481Z,29216
2017-09-13T07:57:08.863Z,28576
2017-09-13T07:58:50.261Z,30368
2017-09-13T07:59:51.640Z,23904
2017-09-13T08:01:13.660Z,13724
2017-09-13T08:02:15.512Z,13468
2017-09-13T08:03:37.521Z,10604
2017-09-13T08:04:38.913Z,8516
2017-09-13T08:06:01.926Z,15520
2017-09-13T08:07:03.303Z,14560
2017-09-13T08:08:04.689Z,5792
2017-09-13T08:09:06.063Z,6964
2017-09-13T08:10:07.444Z,11060
2017-09-13T08:11:08.824Z,17472
2017-09-13T08:12:10.207Z,12508
2017-09-13T08:13:11.587Z,10496
2017-09-13T08:14:12.974Z,8436
2017-09-13T08:15:14.344Z,6140
2017-09-13T08:16:15.727Z,6420
2017-09-13T08:17:17.103Z,8304
2017-09-13T08:18:18.489Z,10236
2017-09-13T08:19:19.870Z,10924
2017-09-13T08:20:21.250Z,8192
2017-09-13T08:21:22.632Z,10544
2017-09-13T08:22:24.009Z,12420
2017-09-13T08:23:25.387Z,11544
2017-09-13T08:24:26.765Z,13212
2017-09-13T08:25:28.149Z,11388
2017-09-13T08:26:29.527Z,7212
2017-09-13T08:27:30.909Z,5344
2017-09-13T08:28:32.285Z,4044
2017-09-13T08:29:33.664Z,3788
2017-09-13T08:31:16.047Z,8588
2017-09-13T08:32:17.415Z,6156
2017-09-13T08:33:18.793Z,6820
2017-09-13T08:34:20.168Z,8320
2017-09-13T08:35:21.583Z,11676
2017-09-13T08:36:22.960Z,10348
2017-09-13T08:37:24.345Z,12472
2017-09-13T08:38:25.720Z,15272
2017-09-13T08:39:27.099Z,16096
2017-09-13T08:40:28.474Z,16608
2017-09-13T08:41:29.852Z,18816
2017-09-13T08:42:31.232Z,23488
2017-09-13T08:43:32.609Z,17056
2017-09-13T08:44:33.988Z,21024
2017-09-13T08:45:35.368Z,15392
2017-09-13T08:46:36.746Z,22048
2017-09-13T08:47:38.124Z,11712
2017-09-13T08:48:39.531Z,21536
2017-09-13T08:49:40.910Z,24288
2017-09-13T08:50:42.291Z,21376
2017-09-13T08:51:43.672Z,15616
2017-09-13T08:52:45.056Z,17632
2017-09-13T08:53:46.435Z,16896
2017-09-13T08:54:47.817Z,17664
2017-09-13T08:55:49.196Z,17696
2017-09-13T08:56:50.578Z,17792
2017-09-13T08:57:51.962Z,18720
2017-09-13T08:58:53.344Z,17280
2017-09-13T08:59:54.727Z,17632
2017-09-13T09:00:56.109Z,17280
2017-09-13T09:02:38.485Z,17632
2017-09-13T09:03:39.865Z,18688
2017-09-13T09:04:41.251Z,22880
2017-09-13T09:05:42.634Z,22400
2017-09-13T09:06:44.017Z,11564
2017-09-13T09:07:45.398Z,20224
2017-09-13T09:08:46.783Z,19232
2017-09-13T09:09:48.171Z,22880
2017-09-13T09:10:49.551Z,22944
2017-09-13T09:11:50.933Z,24320
2017-09-13T09:12:52.325Z,27360
2017-09-13T09:13:53.708Z,31232
2017-09-13T09:14:55.093Z,19584
2017-09-13T09:15:56.490Z,12584
2017-09-13T09:16:57.861Z,21920
2017-09-13T09:17:59.245Z,34912
2017-09-13T09:19:00.628Z,17312
2017-09-13T09:20:02.014Z,19872
2017-09-13T09:21:03.396Z,32320
2017-09-13T09:22:04.779Z,37408
2017-09-13T09:23:06.166Z,36672
2017-09-13T09:24:07.561Z,14412
2017-09-13T09:25:08.941Z,21888
2017-09-13T09:26:10.325Z,14288
2017-09-13T09:27:11.706Z,15112
2017-09-13T09:28:13.091Z,19296
2017-09-13T09:29:14.480Z,48768
2017-09-13T09:30:15.867Z,58048
2017-09-13T09:31:17.251Z,62368
2017-09-13T09:32:18.633Z,63328
2017-09-13T09:33:20.019Z,16192
2017-09-13T09:34:21.428Z,15472
2017-09-13T09:35:22.794Z,16192
2017-09-13T09:36:24.178Z,15648
2017-09-13T09:37:25.563Z,20320
2017-09-13T09:38:26.949Z,19872
2017-09-13T09:39:28.333Z,11876
2017-09-13T09:40:29.716Z,12424
2017-09-13T09:41:31.098Z,10732
2017-09-13T09:42:32.481Z,14752
2017-09-13T09:43:33.865Z,12120
2017-09-13T09:44:35.248Z,13856
2017-09-13T09:45:36.632Z,16576
2017-09-13T09:46:38.015Z,29792
2017-09-13T09:47:39.405Z,48800
2017-09-13T09:48:40.781Z,72800
2017-09-13T09:49:42.164Z,44640
2017-09-13T09:51:23.537Z,69984
2017-09-13T09:52:24.916Z,68320
2017-09-13T09:53:47.919Z,68768
2017-09-13T09:54:49.302Z,71104
2017-09-13T09:55:50.688Z,75488
2017-09-13T09:56:52.075Z,74720
2017-09-13T09:57:53.459Z,72896
2017-09-13T09:58:54.843Z,79936
2017-09-13T09:59:56.233Z,20960
2017-09-13T10:00:57.621Z,75392
2017-09-13T10:01:59.002Z,72672
2017-09-13T10:03:00.387Z,73440
2017-09-13T10:04:01.772Z,71072
2017-09-13T10:05:03.161Z,73152
2017-09-13T10:06:04.550Z,78624
2017-09-13T10:07:05.935Z,73728
2017-09-13T10:08:07.322Z,78400
2017-09-13T10:09:08.708Z,66272
2017-09-13T10:10:10.096Z,68576
2017-09-13T10:11:11.483Z,68160
2017-09-13T10:12:12.869Z,13508
2017-09-13T10:13:14.256Z,77344
2017-09-13T10:14:15.645Z,76256
2017-09-13T10:15:17.033Z,77440
2017-09-13T10:16:18.428Z,18720
2017-09-13T10:17:19.809Z,14608
2017-09-13T10:18:21.199Z,83296
2017-09-13T10:19:22.587Z,78400
2017-09-13T10:20:23.977Z,47328
2017-09-13T10:21:25.362Z,35488
2017-09-13T10:22:26.754Z,52544
2017-09-13T10:23:28.154Z,55072
2017-09-13T10:24:29.537Z,76928
2017-09-13T10:25:30.949Z,29536
2017-09-13T10:26:32.321Z,31488
2017-09-13T10:27:33.708Z,42688
2017-09-13T10:28:35.096Z,19936
2017-09-13T10:29:36.483Z,26496
2017-09-13T10:30:37.870Z,78528
2017-09-13T10:31:39.260Z,80224
2017-09-13T10:32:40.648Z,17408
2017-09-13T10:33:42.103Z,77088
2017-09-13T10:34:43.491Z,86656
2017-09-13T10:35:44.888Z,88576
2017-09-13T10:36:46.271Z,89216
2017-09-13T10:37:47.656Z,90048
2017-09-13T10:39:30.048Z,78496
2017-09-13T10:40:31.433Z,79520
2017-09-13T10:41:32.821Z,84000
2017-09-13T10:42:34.213Z,75488
2017-09-13T10:43:35.600Z,82880
2017-09-13T10:44:36.987Z,63520
2017-09-13T10:45:38.376Z,15648
2017-09-13T10:46:39.766Z,18592
2017-09-13T10:47:41.153Z,90528
2017-09-13T10:48:42.542Z,37792
2017-09-13T10:49:43.934Z,94336
2017-09-13T10:50:45.321Z,18816
2017-09-13T10:51:46.712Z,17152
2017-09-13T10:52:48.101Z,59200
2017-09-13T10:53:49.490Z,19168
2017-09-13T10:54:50.876Z,22080
2017-09-13T10:55:52.261Z,17760
2017-09-13T10:56:53.668Z,90560
2017-09-13T10:57:55.039Z,18400
2017-09-13T10:58:56.427Z,89920
2017-09-13T10:59:57.821Z,89760
2017-09-13T11:00:59.209Z,87648
2017-09-13T11:02:00.597Z,89152
2017-09-13T11:03:01.984Z,93856
2017-09-13T11:04:03.372Z,17824
2017-09-13T11:05:04.758Z,92704
2017-09-13T11:06:06.150Z,82624
2017-09-13T11:07:07.535Z,75584
2017-09-13T11:08:08.926Z,85600
2017-09-13T11:09:10.314Z,18208
2017-09-13T11:10:11.701Z,88480
2017-09-13T11:11:13.089Z,86208
2017-09-13T11:12:14.477Z,84320
2017-09-13T11:13:15.867Z,84736
2017-09-13T11:14:17.298Z,83200
2017-09-13T11:15:18.727Z,84192
2017-09-13T11:16:20.143Z,85088
2017-09-13T11:17:21.576Z,87392
2017-09-13T11:18:22.971Z,36320
2017-09-13T11:19:24.354Z,90560
2017-09-13T11:20:25.742Z,88800
2017-09-13T11:21:27.132Z,94240
2017-09-13T11:22:28.519Z,30080
2017-09-13T11:23:29.924Z,57056
2017-09-13T11:24:31.414Z,29472
2017-09-13T11:25:32.820Z,92800
2017-09-13T11:26:34.200Z,22912
2017-09-13T11:27:35.589Z,28192
2017-09-13T11:28:36.988Z,84032
2017-09-13T11:29:38.372Z,90464
2017-09-13T11:30:39.764Z,91904
2017-09-13T11:31:41.148Z,93440
2017-09-13T11:32:42.538Z,94880
2017-09-13T11:33:43.928Z,94976
2017-09-13T11:34:45.316Z,52192
2017-09-13T11:35:46.708Z,92000
2017-09-13T11:36:48.100Z,88096
2017-09-13T11:37:49.488Z,84480
2017-09-13T11:38:50.876Z,78912
2017-09-13T11:39:52.273Z,81280
2017-09-13T11:40:53.652Z,81440
2017-09-13T11:41:55.041Z,17984
2017-09-13T11:42:56.431Z,84224
2017-09-13T11:43:57.822Z,15308
2017-09-13T11:44:59.208Z,77408
2017-09-13T11:46:00.601Z,73120
2017-09-13T11:47:01.990Z,75936
2017-09-13T11:48:03.376Z,60576
2017-09-13T11:49:04.769Z,77088
2017-09-13T11:50:06.160Z,74368
2017-09-13T11:51:07.549Z,76064
2017-09-13T11:52:08.936Z,15680
2017-09-13T11:53:10.324Z,14880
2017-09-13T11:54:11.714Z,76320
2017-09-13T11:55:13.108Z,77024
2017-09-13T11:56:14.496Z,56864
2017-09-13T11:57:15.890Z,16512
2017-09-13T11:58:17.287Z,76480
2017-09-13T11:59:18.672Z,71904
2017-09-13T12:00:20.063Z,30432
2017-09-13T12:01:21.451Z,73984
2017-09-13T12:02:22.842Z,14792
2017-09-13T12:03:24.231Z,27488
2017-09-13T12:04:25.626Z,35328
2017-09-13T12:05:27.015Z,12676
2017-09-13T12:06:28.401Z,19168
2017-09-13T12:07:29.786Z,30208
2017-09-13T12:08:31.181Z,77536
2017-09-13T12:09:32.567Z,12148
2017-09-13T12:10:33.951Z,8340
2017-09-13T12:11:35.338Z,6584
2017-09-13T12:12:36.723Z,6464
2017-09-13T12:13:38.112Z,5864
2017-09-13T12:14:39.490Z,6452
2017-09-13T12:15:40.882Z,8220
2017-09-13T12:16:42.254Z,17024
2017-09-13T12:17:43.646Z,76928
2017-09-13T12:18:45.032Z,14864
2017-09-13T12:19:46.416Z,17888
2017-09-13T12:20:47.800Z,72160
2017-09-13T12:21:49.183Z,26912
2017-09-13T12:22:50.569Z,50368
2017-09-13T12:23:51.956Z,22944
2017-09-13T12:24:53.343Z,14684
2017-09-13T12:25:54.727Z,17248
2017-09-13T12:26:56.114Z,26656
2017-09-13T12:27:57.501Z,80992
2017-09-13T12:28:58.885Z,27520
2017-09-13T12:30:00.270Z,78048
2017-09-13T12:31:01.654Z,25984
2017-09-13T12:32:03.039Z,74624
2017-09-13T12:33:04.433Z,70688
2017-09-13T12:34:05.812Z,65152
2017-09-13T12:35:07.202Z,58944
2017-09-13T12:36:08.587Z,45440
2017-09-13T12:37:09.978Z,36864
2017-09-13T12:38:11.359Z,34336
2017-09-13T12:39:12.754Z,32128
2017-09-13T12:40:14.150Z,31808
2017-09-13T12:41:15.531Z,32288
2017-09-13T12:42:16.919Z,32320
2017-09-13T12:43:18.305Z,32960
2017-09-13T12:44:19.696Z,35264
2017-09-13T12:45:21.084Z,11988
2017-09-13T12:46:22.472Z,11244
2017-09-13T12:47:23.862Z,35200
2017-09-13T12:48:25.251Z,37824
2017-09-13T12:49:26.641Z,10692
2017-09-13T12:50:28.024Z,7568
2017-09-13T12:51:29.418Z,5484
2017-09-13T12:52:30.798Z,4068
2017-09-13T12:53:32.186Z,3696
2017-09-13T12:54:33.573Z,4548
2017-09-13T12:55:34.961Z,8292
2017-09-13T12:56:36.343Z,12124
2017-09-13T12:57:37.732Z,6768
2017-09-13T12:58:39.116Z,6760
2017-09-13T12:59:40.498Z,8500
2017-09-13T13:00:41.880Z,8640
2017-09-13T13:01:43.267Z,7348
2017-09-13T13:02:44.651Z,4732
2017-09-13T13:03:46.043Z,2708
2017-09-13T13:04:47.427Z,3732
2017-09-13T13:05:48.809Z,3604
2017-09-13T13:06:50.192Z,3356
2017-09-13T13:07:51.569Z,3112
2017-09-13T13:08:52.951Z,3036
2017-09-13T13:09:54.333Z,3580
2017-09-13T13:10:55.714Z,3220
2017-09-13T13:11:57.093Z,3488
2017-09-13T13:12:58.472Z,5760
2017-09-13T13:13:59.855Z,10848
2017-09-13T13:15:01.236Z,12892
2017-09-13T13:16:02.616Z,13336
2017-09-13T13:17:04.000Z,9572
2017-09-13T13:18:05.380Z,7876
2017-09-13T13:19:06.757Z,6564
2017-09-13T13:20:08.142Z,30592
2017-09-13T13:21:09.523Z,7896
2017-09-13T13:22:10.900Z,6600
2017-09-13T13:23:12.288Z,4884
2017-09-13T13:24:13.665Z,4516
2017-09-13T13:25:15.043Z,4212
2017-09-13T13:26:16.424Z,3316
2017-09-13T13:27:17.803Z,3736
2017-09-13T13:28:19.187Z,3264
2017-09-13T13:29:20.570Z,3744
2017-09-13T13:30:21.954Z,6232
2017-09-13T13:31:23.349Z,7504
2017-09-13T13:32:24.726Z,7404
2017-09-13T13:33:26.106Z,7280
2017-09-13T13:34:27.495Z,7864
2017-09-13T13:35:28.873Z,7316
2017-09-13T13:37:11.242Z,29760
2017-09-13T13:38:12.619Z,21792
2017-09-13T13:39:14.000Z,29504
2017-09-13T13:40:15.382Z,40000
2017-09-13T13:41:16.762Z,10884
2017-09-13T13:42:18.146Z,9456
2017-09-13T13:43:19.527Z,8056
2017-09-13T13:44:20.908Z,9012
2017-09-13T13:45:22.287Z,8868
2017-09-13T13:46:23.670Z,8020
2017-09-13T13:47:25.052Z,5608
2017-09-13T13:48:26.431Z,4592
2017-09-13T13:49:27.815Z,3496
2017-09-13T13:50:29.203Z,3040
2017-09-13T13:51:30.583Z,3088
2017-09-13T13:52:31.963Z,3896
2017-09-13T13:53:33.345Z,4928
2017-09-13T13:54:34.723Z,6524
2017-09-13T13:55:36.106Z,9244
2017-09-13T13:56:37.486Z,10360
2017-09-13T13:57:38.870Z,9648
2017-09-13T13:58:40.250Z,9328
2017-09-13T13:59:41.626Z,9348
2017-09-13T14:00:43.009Z,10672
2017-09-13T14:01:44.387Z,7764